This is the latest recevied weather packets stored in our database for station/object SP5EB-3. If no packets are shown the sender has not sent any weather packets the latest 10 day(s).
| Time | Temp. | Humidity | Pressure | Rain* | Wind** | Luminosity | Snow |
|---|---|---|---|---|---|---|---|
| 1788077768 | 21.67° C | 99% | 1014.3 hPa | - | - | - | - |
| 1788077458 | 21.67° C | 99% | 1014.3 hPa | - | - | - | - |
| 1788077238 | 21.67° C | 99% | 1014.1 hPa | - | - | - | - |
| 1788077148 | 21.67° C | 99% | 1014.1 hPa | - | - | - | - |
| 1788076839 | 21.67° C | 99% | 1014.1 hPa | - | - | - | - |
| 1788076688 | 21.67° C | 99% | 1014.1 hPa | - | - | - | - |
| 1788076124 | 21.11° C | 99% | 1013.9 hPa | - | - | - | - |
| 1788076074 | 21.11° C | 99% | 1014 hPa | - | - | - | - |
| 1788075882 | 20.56° C | 99% | 1014.1 hPa | - | - | - | - |
| 1788075849 | 20.56° C | 99% | 1014.1 hPa | - | - | - | - |
| 1788075796 | 20° C | 99% | 1014 hPa | - | - | - | - |
| 1788075766 | 20° C | 99% | 1014 hPa | - | - | - | - |
| 1788075747 | 19.44° C | 99% | 1013.9 hPa | - | - | - | - |
| 1788075720 | 19.44° C | 99% | 1014 hPa | - | - | - | - |
| 1788075701 | 19.44° C | 99% | 1013.9 hPa | - | - | - | - |
| 1788075677 | 18.89° C | 99% | 1014 hPa | - | - | - | - |
| 1788074960 | 18.89° C | 99% | 1013.9 hPa | - | - | - | - |
| 1788074948 | 18.33° C | 99% | 1013.9 hPa | - | - | - | - |
| 1788074678 | 20.56° C | 99% | 1014.1 hPa | - | - | - | - |
| 1788074536 | 17.78° C | 99% | 1013.9 hPa | - | - | - | - |
| 1788073751 | 20° C | 99% | 1014 hPa | - | - | - | - |
| 1788073263 | 17.22° C | 99% | 1013.9 hPa | - | - | - | - |
| 1788070694 | 17.22° C | 99% | 1013.8 hPa | - | - | - | - |
| 1788069748 | 16.67° C | 99% | 1013.8 hPa | - | - | - | - |
| 1788069507 | 16.67° C | 99% | 1013.8 hPa | - | - | - | - |
* Rain since midnight (hover to see other rain measurements)
** Current wind speed in m/s (hover to see current wind gust speed)